Terminal Aerodrome Forecast
Issued by NWS Shreveport, LA

Home | Current Version | Previous Version | Text Only | Print | Product List | Glossary On
Versions: 1 2 3 4 5 6 7 8 9 10 11 12 13 14 15 16 17 18 19
779
FTUS44 KSHV 242346
TAFGGG
TAF
KGGG 242346Z 2500/2524 02008KT P6SM SCT026
     FM250100 09004KT P6SM SCT080 BKN120
     FM251500 07007KT P6SM BKN050 BKN120=

USA.gov is the U.S. government's official web portal to all federal, state and local government web resources and services.